createdAt,value
2023-01-25T00:02:03.532Z,12.02
2023-01-25T00:04:32.293Z,9.97
2023-01-25T00:06:59.624Z,10.23
2023-01-25T00:09:27.725Z,10.13
2023-01-25T00:11:56.498Z,11.05
2023-01-25T00:14:25.057Z,13.97
2023-01-25T00:16:52.911Z,10.98
2023-01-25T00:19:20.806Z,12.07
2023-01-25T00:21:48.216Z,13.43
2023-01-25T00:24:16.135Z,15.32
2023-01-25T00:26:44.177Z,14.43
2023-01-25T00:29:14.313Z,13.87
2023-01-25T00:32:25.793Z,14.17
2023-01-25T00:34:53.495Z,16.17
2023-01-25T00:37:43.480Z,17.87
2023-01-25T00:40:13.036Z,15.10
2023-01-25T00:42:41.224Z,15.50
2023-01-25T00:45:12.415Z,15.55
2023-01-25T00:47:40.064Z,17.23
2023-01-25T00:50:09.152Z,15.45
2023-01-25T00:52:36.994Z,14.40
2023-01-25T00:55:05.740Z,14.70
2023-01-25T00:57:33.367Z,12.60
2023-01-25T01:00:00.902Z,12.32
2023-01-25T01:02:30.388Z,13.93
2023-01-25T01:04:58.130Z,14.23
2023-01-25T01:07:25.447Z,12.35
2023-01-25T01:09:53.196Z,13.43
2023-01-25T01:12:20.525Z,10.75
2023-01-25T01:14:48.101Z,12.50
2023-01-25T01:17:15.363Z,10.27
2023-01-25T01:19:43.070Z,9.20
2023-01-25T01:22:10.457Z,8.30
2023-01-25T01:24:38.170Z,10.50
2023-01-25T01:27:05.688Z,10.82
2023-01-25T01:29:33.295Z,8.75
2023-01-25T01:32:00.682Z,10.83
2023-01-25T01:34:28.524Z,11.02
2023-01-25T01:36:55.831Z,11.20
2023-01-25T01:39:23.446Z,12.47
2023-01-25T01:41:50.755Z,12.20
2023-01-25T01:44:41.513Z,10.25
2023-01-25T01:47:21.744Z,9.13
2023-01-25T01:49:59.710Z,11.33
2023-01-25T01:52:35.875Z,10.67
2023-01-25T01:55:11.925Z,11.20
2023-01-25T01:57:53.815Z,10.25
2023-01-25T02:00:30.994Z,8.63
2023-01-25T02:02:59.885Z,9.48
2023-01-25T02:05:46.721Z,9.97
2023-01-25T02:08:15.544Z,11.10
2023-01-25T02:10:45.052Z,8.40
2023-01-25T02:13:12.345Z,8.82
2023-01-25T02:15:46.574Z,9.60
2023-01-25T02:18:14.814Z,6.93
2023-01-25T02:20:55.321Z,7.23
2023-01-25T02:23:51.634Z,8.10
2023-01-25T02:26:20.620Z,9.30
2023-01-25T02:28:50.759Z,8.00
2023-01-25T02:31:18.745Z,7.82
2023-01-25T02:33:46.308Z,7.45
2023-01-25T02:36:25.985Z,9.07
2023-01-25T02:39:29.562Z,7.57
2023-01-25T02:41:57.103Z,8.95
2023-01-25T02:44:34.394Z,7.57
2023-01-25T02:47:02.168Z,6.85
2023-01-25T02:49:29.467Z,7.00
2023-01-25T02:51:57.629Z,8.82
2023-01-25T02:54:27.099Z,5.93
2023-01-25T02:56:55.028Z,7.43
2023-01-25T02:59:22.929Z,8.23
2023-01-25T03:01:51.008Z,7.07
2023-01-25T03:04:18.475Z,7.95
2023-01-25T03:06:46.155Z,7.85
2023-01-25T03:09:13.496Z,7.60
2023-01-25T03:11:41.046Z,7.50
2023-01-25T03:14:08.359Z,6.72
2023-01-25T03:16:36.067Z,7.72
2023-01-25T03:19:03.716Z,7.90
2023-01-25T03:21:31.680Z,7.22
2023-01-25T03:24:01.877Z,6.78
2023-01-25T03:26:30.208Z,8.47
2023-01-25T03:28:57.602Z,9.73
2023-01-25T03:31:25.353Z,9.35
2023-01-25T03:33:52.801Z,8.77
2023-01-25T03:36:20.422Z,10.15
2023-01-25T03:38:47.687Z,7.72
2023-01-25T03:41:15.303Z,7.32
2023-01-25T03:43:42.681Z,8.77
2023-01-25T03:46:10.211Z,8.52
2023-01-25T03:48:37.479Z,8.63
2023-01-25T03:51:05.241Z,7.38
2023-01-25T03:53:33.046Z,8.38
2023-01-25T03:56:10.510Z,8.00
2023-01-25T03:58:39.802Z,8.95
2023-01-25T04:01:08.636Z,9.65
2023-01-25T04:03:36.056Z,8.38
2023-01-25T04:06:05.460Z,7.93
2023-01-25T04:08:32.947Z,8.77
2023-01-25T04:11:09.470Z,6.88
2023-01-25T04:13:39.266Z,8.23
2023-01-25T04:16:09.844Z,7.28
2023-01-25T04:18:37.418Z,8.88
2023-01-25T04:21:05.581Z,7.65
2023-01-25T04:23:33.122Z,8.88
2023-01-25T04:26:07.327Z,9.38
2023-01-25T04:28:35.954Z,8.05
2023-01-25T04:31:06.086Z,8.82
2023-01-25T04:33:34.253Z,7.97
2023-01-25T04:36:01.959Z,9.13
2023-01-25T04:38:29.367Z,10.88
2023-01-25T04:40:57.022Z,11.35
2023-01-25T04:43:26.192Z,7.75
2023-01-25T04:45:53.804Z,12.65
2023-01-25T04:48:21.363Z,10.43
2023-01-25T04:50:49.044Z,9.73
2023-01-25T04:53:16.464Z,9.10
2023-01-25T04:55:48.029Z,10.45
2023-01-25T04:58:15.982Z,10.43
2023-01-25T05:00:43.732Z,9.23
2023-01-25T05:03:11.150Z,9.25
2023-01-25T05:05:38.810Z,9.23
2023-01-25T05:08:06.431Z,10.13
2023-01-25T05:10:34.008Z,10.18
2023-01-25T05:13:02.620Z,9.13
2023-01-25T05:15:30.216Z,8.45
2023-01-25T05:17:57.559Z,10.07
2023-01-25T05:20:25.150Z,12.80
2023-01-25T05:22:52.421Z,12.37
2023-01-25T05:25:38.862Z,13.60
2023-01-25T05:28:07.600Z,13.55
2023-01-25T05:30:35.622Z,11.98
2023-01-25T05:33:03.074Z,13.05
2023-01-25T05:35:30.761Z,10.75
2023-01-25T05:37:58.911Z,8.98
2023-01-25T05:40:27.217Z,9.63
2023-01-25T05:42:56.637Z,10.07
2023-01-25T05:45:24.556Z,8.63
2023-01-25T05:47:59.643Z,9.38
2023-01-25T05:50:27.741Z,8.30
2023-01-25T05:52:55.056Z,9.23
2023-01-25T05:55:22.746Z,9.97
2023-01-25T05:57:51.171Z,9.70
2023-01-25T06:00:19.287Z,10.50
2023-01-25T06:02:46.722Z,11.27
2023-01-25T06:05:14.513Z,9.23
2023-01-25T06:07:41.785Z,9.68
2023-01-25T06:10:10.117Z,10.18
2023-01-25T06:12:37.422Z,9.95
2023-01-25T06:15:05.626Z,9.82
2023-01-25T06:17:32.888Z,11.57
2023-01-25T06:20:00.490Z,12.25
2023-01-25T06:22:27.763Z,15.35
2023-01-25T06:24:55.329Z,12.35
2023-01-25T06:27:22.591Z,16.03
2023-01-25T06:29:50.578Z,11.07
2023-01-25T06:32:18.024Z,10.73
2023-01-25T06:34:46.526Z,8.38
2023-01-25T06:37:13.741Z,10.82
2023-01-25T06:39:41.327Z,9.65
2023-01-25T06:42:08.630Z,9.75
2023-01-25T06:44:36.189Z,9.07
2023-01-25T06:47:03.543Z,11.38
2023-01-25T06:49:31.116Z,13.67
2023-01-25T06:51:58.407Z,11.43
2023-01-25T06:54:25.965Z,10.55
2023-01-25T06:56:53.481Z,9.20
2023-01-25T06:59:21.160Z,9.05
2023-01-25T07:01:48.552Z,11.00
2023-01-25T07:04:16.235Z,9.75
2023-01-25T07:06:43.799Z,19.67
2023-01-25T07:09:14.635Z,13.68
2023-01-25T07:11:42.037Z,13.65
2023-01-25T07:14:09.641Z,12.98
2023-01-25T07:16:37.313Z,14.13
2023-01-25T07:19:07.340Z,12.18
2023-01-25T07:21:34.776Z,10.02
2023-01-25T07:24:04.561Z,10.18
2023-01-25T07:26:32.808Z,11.40
2023-01-25T07:29:00.685Z,12.07
2023-01-25T07:31:28.516Z,10.00
2023-01-25T07:33:58.451Z,9.88
2023-01-25T07:36:26.319Z,12.80
2023-01-25T07:38:58.787Z,13.70
2023-01-25T07:41:26.766Z,14.90
2023-01-25T07:43:55.311Z,13.75
2023-01-25T07:46:23.813Z,17.08
2023-01-25T07:48:53.150Z,14.82
2023-01-25T07:51:27.154Z,15.77
2023-01-25T07:53:58.482Z,15.52
2023-01-25T07:56:38.510Z,14.05
2023-01-25T07:59:08.467Z,13.88
2023-01-25T08:01:37.014Z,15.65
2023-01-25T08:04:05.936Z,14.55
2023-01-25T08:06:40.891Z,15.40
2023-01-25T08:09:15.081Z,14.02
2023-01-25T08:11:43.049Z,15.02
2023-01-25T08:14:11.487Z,13.45
2023-01-25T08:16:38.940Z,15.52
2023-01-25T08:19:06.748Z,14.50
2023-01-25T08:21:35.567Z,15.80
2023-01-25T08:24:07.414Z,13.40
2023-01-25T08:26:36.599Z,12.50
2023-01-25T08:29:06.229Z,12.35
2023-01-25T08:31:35.947Z,14.00
2023-01-25T08:34:04.304Z,12.80
2023-01-25T08:36:31.782Z,10.70
2023-01-25T08:39:06.488Z,13.13
2023-01-25T08:41:35.610Z,15.23
2023-01-25T08:44:04.828Z,15.65
2023-01-25T08:46:34.320Z,17.80
2023-01-25T08:49:03.845Z,32.92
2023-01-25T08:51:33.083Z,21.88
2023-01-25T08:54:11.586Z,14.05
2023-01-25T08:56:41.231Z,14.10
2023-01-25T08:59:12.496Z,12.25
2023-01-25T09:01:40.311Z,13.18
2023-01-25T09:04:08.135Z,16.35
2023-01-25T09:06:35.689Z,15.60
2023-01-25T09:09:04.897Z,11.82
2023-01-25T09:11:35.155Z,13.45
2023-01-25T09:14:03.159Z,12.30
2023-01-25T09:16:30.841Z,12.88
2023-01-25T09:19:01.715Z,12.35
2023-01-25T09:21:29.977Z,12.65
2023-01-25T09:24:07.313Z,13.77
2023-01-25T09:26:39.945Z,10.68
2023-01-25T09:29:08.797Z,11.38
2023-01-25T09:31:45.243Z,12.18
2023-01-25T09:34:15.667Z,12.32
2023-01-25T09:36:43.110Z,13.30
2023-01-25T09:39:14.515Z,12.80
2023-01-25T09:42:14.002Z,18.15
2023-01-25T09:44:46.474Z,14.25
2023-01-25T09:47:45.657Z,17.58
2023-01-25T09:50:31.068Z,15.05
2023-01-25T09:53:15.548Z,29.50
2023-01-25T09:55:44.602Z,16.77
2023-01-25T09:58:20.170Z,13.88
2023-01-25T10:01:00.077Z,16.55
2023-01-25T10:03:44.060Z,15.55
2023-01-25T10:06:16.420Z,17.05
2023-01-25T10:08:58.983Z,13.63
2023-01-25T10:11:31.603Z,14.85
2023-01-25T10:14:00.623Z,15.48
2023-01-25T10:16:44.441Z,14.60
2023-01-25T10:19:27.587Z,15.52
2023-01-25T10:22:11.823Z,16.67
2023-01-25T10:25:03.652Z,17.50
2023-01-25T10:28:04.163Z,14.50
2023-01-25T10:31:20.121Z,13.43
2023-01-25T10:33:49.459Z,18.63
2023-01-25T10:36:24.388Z,16.33
2023-01-25T10:38:59.544Z,21.63
2023-01-25T10:41:47.499Z,24.02
2023-01-25T10:44:24.994Z,20.77
2023-01-25T10:47:04.510Z,18.90
2023-01-25T10:49:42.407Z,23.35
2023-01-25T10:52:25.139Z,18.30
2023-01-25T10:55:26.242Z,17.45
2023-01-25T10:57:58.406Z,17.38
2023-01-25T11:00:34.429Z,13.25
2023-01-25T11:03:01.915Z,11.85
2023-01-25T11:05:35.235Z,11.85
2023-01-25T11:08:25.810Z,12.88
2023-01-25T11:10:54.544Z,11.35
2023-01-25T11:13:26.971Z,11.68
2023-01-25T11:16:31.418Z,13.75
2023-01-25T11:19:01.306Z,12.15
2023-01-25T11:21:34.974Z,15.05
2023-01-25T11:24:10.201Z,16.85
2023-01-25T11:26:40.898Z,19.17
2023-01-25T11:29:18.218Z,15.43
2023-01-25T11:31:54.613Z,17.60
2023-01-25T11:34:28.267Z,16.95
2023-01-25T11:37:33.959Z,16.52
2023-01-25T11:40:49.184Z,16.48
2023-01-25T11:43:56.670Z,16.40
2023-01-25T11:46:53.951Z,13.40
2023-01-25T11:49:58.693Z,12.27
2023-01-25T11:52:35.379Z,15.10
2023-01-25T11:55:45.985Z,10.90
2023-01-25T11:58:41.606Z,10.90
2023-01-25T12:01:56.047Z,9.88
2023-01-25T12:04:26.055Z,9.68
2023-01-25T12:07:22.910Z,13.07
2023-01-25T12:10:39.198Z,14.25
2023-01-25T12:13:36.793Z,10.15
2023-01-25T12:16:29.347Z,11.88
2023-01-25T12:19:06.898Z,12.27
2023-01-25T12:22:01.235Z,13.23
2023-01-25T12:24:34.942Z,12.50
2023-01-25T12:27:17.196Z,16.05
2023-01-25T12:30:15.725Z,12.45
2023-01-25T12:33:14.467Z,11.10
2023-01-25T12:35:49.858Z,12.57
2023-01-25T12:38:40.415Z,12.23
2023-01-25T12:41:45.502Z,13.18
2023-01-25T12:44:40.763Z,12.38
2023-01-25T12:47:25.187Z,10.90
2023-01-25T12:50:27.687Z,10.43
2023-01-25T12:53:13.869Z,10.93
2023-01-25T12:55:42.005Z,12.05
2023-01-25T12:58:56.515Z,11.30
2023-01-25T13:01:41.276Z,11.82
2023-01-25T13:04:53.365Z,12.80
2023-01-25T13:07:54.503Z,11.77
2023-01-25T13:10:32.298Z,13.38
2023-01-25T13:13:20.423Z,14.27
2023-01-25T13:15:48.721Z,14.05
2023-01-25T13:18:27.980Z,12.52
2023-01-25T13:21:00.670Z,12.55
2023-01-25T13:23:44.071Z,14.30
2023-01-25T13:26:39.760Z,13.45
2023-01-25T13:29:32.442Z,14.63
2023-01-25T13:32:02.285Z,12.93
2023-01-25T13:34:39.314Z,12.45
2023-01-25T13:37:33.454Z,13.23
2023-01-25T13:40:37.805Z,13.02
2023-01-25T13:43:22.770Z,13.82
2023-01-25T13:45:53.203Z,14.45
2023-01-25T13:48:28.739Z,12.05
2023-01-25T13:51:06.452Z,11.60
2023-01-25T13:53:35.407Z,11.68
2023-01-25T13:56:03.652Z,15.05
2023-01-25T13:58:31.283Z,15.52
2023-01-25T14:01:13.587Z,15.13
2023-01-25T14:03:49.260Z,18.60
2023-01-25T14:06:36.223Z,20.08
2023-01-25T14:09:16.223Z,18.88
2023-01-25T14:11:55.297Z,18.63
2023-01-25T14:14:36.793Z,18.02
2023-01-25T14:17:18.803Z,18.00
2023-01-25T14:19:55.108Z,18.98
2023-01-25T14:22:29.669Z,18.05
2023-01-25T14:25:17.366Z,18.30
2023-01-25T14:27:57.196Z,16.90
2023-01-25T14:30:32.016Z,17.60
2023-01-25T14:33:17.472Z,15.82
2023-01-25T14:35:55.657Z,15.95
2023-01-25T14:38:51.238Z,15.40
2023-01-25T14:41:59.228Z,13.18
2023-01-25T14:44:30.107Z,11.90
2023-01-25T14:47:30.943Z,10.98
2023-01-25T14:50:29.353Z,11.75
2023-01-25T14:53:00.321Z,12.27
2023-01-25T14:55:27.900Z,16.08
2023-01-25T14:58:01.517Z,11.60
2023-01-25T15:00:34.458Z,15.25
2023-01-25T15:03:06.748Z,11.43
2023-01-25T15:05:37.495Z,14.13
2023-01-25T15:08:08.115Z,12.48
2023-01-25T15:10:37.851Z,10.80
2023-01-25T15:13:28.294Z,13.68
2023-01-25T15:16:03.942Z,13.27
2023-01-25T15:18:40.647Z,12.30
2023-01-25T15:21:29.638Z,10.90
2023-01-25T15:24:05.078Z,11.65
2023-01-25T15:26:36.194Z,10.93
2023-01-25T15:29:17.445Z,14.23
2023-01-25T15:31:44.904Z,12.82
2023-01-25T15:34:32.588Z,11.73
2023-01-25T15:37:00.067Z,10.38
2023-01-25T15:39:28.818Z,10.48
2023-01-25T15:41:56.272Z,12.93
2023-01-25T15:44:23.993Z,12.27
2023-01-25T15:46:52.151Z,10.52
2023-01-25T15:49:28.873Z,12.00
2023-01-25T15:51:56.637Z,14.30
2023-01-25T15:54:24.763Z,16.60
2023-01-25T15:56:59.236Z,14.93
2023-01-25T15:59:27.527Z,16.63
2023-01-25T16:01:54.925Z,21.00
2023-01-25T16:04:22.620Z,22.33
2023-01-25T16:06:54.786Z,37.75
2023-01-25T16:09:29.555Z,47.88
2023-01-25T16:11:59.681Z,38.25
2023-01-25T16:14:30.852Z,26.10
2023-01-25T16:17:02.724Z,26.48
2023-01-25T16:19:31.045Z,21.27
2023-01-25T16:21:59.220Z,25.77
2023-01-25T16:24:26.900Z,33.80
2023-01-25T16:27:00.738Z,24.52
2023-01-25T16:29:29.609Z,29.88
2023-01-25T16:31:57.374Z,30.17
2023-01-25T16:34:25.082Z,19.55
2023-01-25T16:36:53.286Z,18.80
2023-01-25T16:39:24.810Z,17.85
2023-01-25T16:41:52.304Z,18.63
2023-01-25T16:44:20.212Z,18.55
2023-01-25T16:46:51.221Z,22.52
2023-01-25T16:49:30.530Z,18.95
2023-01-25T16:51:59.291Z,19.58
2023-01-25T16:54:27.038Z,19.98
2023-01-25T16:56:55.551Z,21.02
2023-01-25T16:59:25.052Z,17.73
2023-01-25T17:01:52.548Z,18.73
2023-01-25T17:04:20.456Z,18.65
2023-01-25T17:06:50.889Z,17.88
2023-01-25T17:09:23.530Z,18.15
2023-01-25T17:11:53.406Z,18.57
2023-01-25T17:14:22.222Z,17.58
2023-01-25T17:16:52.101Z,15.20
2023-01-25T17:19:20.927Z,17.98
2023-01-25T17:21:48.669Z,19.80
2023-01-25T17:24:21.713Z,19.98
2023-01-25T17:26:49.655Z,17.08
2023-01-25T17:29:17.671Z,16.77
2023-01-25T17:31:45.119Z,16.65
2023-01-25T17:34:16.365Z,16.33
2023-01-25T17:36:45.279Z,16.33
2023-01-25T17:39:16.343Z,20.85
2023-01-25T17:41:45.888Z,20.42
2023-01-25T17:44:20.259Z,21.40
2023-01-25T17:46:49.356Z,20.35
2023-01-25T17:49:17.612Z,17.40
2023-01-25T17:51:45.762Z,17.58
2023-01-25T17:54:13.565Z,16.77
2023-01-25T17:56:41.013Z,20.85
2023-01-25T17:59:11.483Z,22.70
2023-01-25T18:01:43.495Z,25.95
2023-01-25T18:04:13.370Z,23.73
2023-01-25T18:06:40.835Z,24.60
2023-01-25T18:09:08.484Z,19.33
2023-01-25T18:11:40.137Z,21.05
2023-01-25T18:14:12.948Z,18.85
2023-01-25T18:16:41.378Z,19.17
2023-01-25T18:19:10.278Z,18.25
2023-01-25T18:21:39.130Z,22.20
2023-01-25T18:24:31.797Z,18.92
2023-01-25T18:27:15.437Z,18.85
2023-01-25T18:30:23.856Z,19.30
2023-01-25T18:32:51.199Z,21.77
2023-01-25T18:35:18.982Z,17.88
2023-01-25T18:37:46.964Z,17.65
2023-01-25T18:40:15.268Z,18.92
2023-01-25T18:42:42.670Z,19.88
2023-01-25T18:45:10.803Z,19.85
2023-01-25T18:47:38.713Z,14.55
2023-01-25T18:50:08.863Z,18.45
2023-01-25T18:52:36.588Z,15.90
2023-01-25T18:55:04.545Z,17.73
2023-01-25T18:57:32.224Z,17.10
2023-01-25T18:59:59.967Z,18.05
2023-01-25T19:02:27.773Z,17.45
2023-01-25T19:04:55.737Z,17.88
2023-01-25T19:07:23.067Z,16.35
2023-01-25T19:09:50.717Z,17.83
2023-01-25T19:12:18.204Z,17.47
2023-01-25T19:14:45.867Z,16.38
2023-01-25T19:17:13.250Z,15.55
2023-01-25T19:19:42.542Z,16.67
2023-01-25T19:22:10.252Z,15.52
2023-01-25T19:24:37.851Z,14.38
2023-01-25T19:27:05.270Z,14.48
2023-01-25T19:29:33.048Z,17.10
2023-01-25T19:32:00.883Z,14.10
2023-01-25T19:34:29.239Z,16.45
2023-01-25T19:36:57.481Z,14.13
2023-01-25T19:39:25.310Z,14.73
2023-01-25T19:41:53.516Z,15.85
2023-01-25T19:44:21.377Z,14.57
2023-01-25T19:46:49.189Z,15.43
2023-01-25T19:49:17.144Z,13.65
2023-01-25T19:51:49.011Z,13.23
2023-01-25T19:54:18.304Z,14.95
2023-01-25T19:56:49.638Z,17.03
2023-01-25T19:59:25.047Z,13.90
2023-01-25T20:01:53.255Z,14.80
2023-01-25T20:04:23.659Z,13.73
2023-01-25T20:06:52.499Z,15.50
2023-01-25T20:09:24.988Z,13.45
2023-01-25T20:11:56.486Z,13.45
2023-01-25T20:14:24.401Z,16.00
2023-01-25T20:16:54.976Z,14.15
2023-01-25T20:19:22.683Z,12.30
2023-01-25T20:21:50.095Z,11.20
2023-01-25T20:24:18.077Z,14.50
2023-01-25T20:26:45.671Z,13.07
2023-01-25T20:29:13.852Z,13.90
2023-01-25T20:31:44.590Z,12.98
2023-01-25T20:34:19.748Z,12.45
2023-01-25T20:36:48.563Z,12.23
2023-01-25T20:39:21.993Z,13.13
2023-01-25T20:41:53.529Z,13.80
2023-01-25T20:44:21.539Z,12.18
2023-01-25T20:46:50.085Z,12.60
2023-01-25T20:49:19.099Z,13.98
2023-01-25T20:51:47.737Z,13.37
2023-01-25T20:54:18.265Z,13.37
2023-01-25T20:56:48.254Z,14.50
2023-01-25T20:59:17.815Z,15.73
2023-01-25T21:01:45.183Z,13.60
2023-01-25T21:04:13.005Z,16.30
2023-01-25T21:06:40.403Z,15.38
2023-01-25T21:09:08.106Z,17.45
2023-01-25T21:11:35.545Z,13.67
2023-01-25T21:14:03.313Z,14.27
2023-01-25T21:16:30.903Z,16.45
2023-01-25T21:19:04.812Z,15.52
2023-01-25T21:21:34.811Z,15.60
2023-01-25T21:24:05.500Z,14.00
2023-01-25T21:26:35.401Z,16.23
2023-01-25T21:29:06.324Z,17.60
2023-01-25T21:31:37.741Z,16.30
2023-01-25T21:34:06.653Z,17.00
2023-01-25T21:36:34.085Z,15.67
2023-01-25T21:39:02.098Z,18.60
2023-01-25T21:41:33.855Z,19.27
2023-01-25T21:44:21.235Z,20.38
2023-01-25T21:47:15.775Z,19.77
2023-01-25T21:49:55.078Z,17.98
2023-01-25T21:52:22.444Z,20.93
2023-01-25T21:54:50.132Z,20.80
2023-01-25T21:57:17.599Z,21.50
2023-01-25T21:59:45.286Z,20.25
2023-01-25T22:02:14.958Z,21.37
2023-01-25T22:04:43.311Z,21.43
2023-01-25T22:07:11.797Z,23.20
2023-01-25T22:09:39.436Z,22.10
2023-01-25T22:12:06.943Z,21.23
2023-01-25T22:14:35.024Z,22.23
2023-01-25T22:17:03.288Z,23.57
2023-01-25T22:19:31.111Z,23.10
2023-01-25T22:21:58.403Z,22.20
2023-01-25T22:24:26.191Z,23.40
2023-01-25T22:27:08.502Z,21.80
2023-01-25T22:29:36.296Z,24.70
2023-01-25T22:32:04.185Z,24.90
2023-01-25T22:34:31.785Z,23.27
2023-01-25T22:36:59.202Z,25.08
2023-01-25T22:39:26.884Z,27.40
2023-01-25T22:41:54.221Z,26.83
2023-01-25T22:44:21.903Z,24.02
2023-01-25T22:46:50.968Z,26.33
2023-01-25T22:49:19.174Z,24.33
2023-01-25T22:51:46.452Z,32.13
2023-01-25T22:54:14.066Z,26.73
2023-01-25T22:56:41.327Z,25.00
2023-01-25T22:59:14.893Z,25.10
2023-01-25T23:01:42.154Z,23.93
2023-01-25T23:04:10.500Z,25.23
2023-01-25T23:06:38.424Z,24.57
2023-01-25T23:09:07.367Z,24.80
2023-01-25T23:11:38.122Z,25.63
2023-01-25T23:14:27.549Z,25.80
2023-01-25T23:17:14.888Z,23.83
2023-01-25T23:19:42.579Z,24.00
2023-01-25T23:22:09.909Z,24.70
2023-01-25T23:24:37.461Z,24.85
2023-01-25T23:27:04.799Z,26.15
2023-01-25T23:29:32.819Z,28.60
2023-01-25T23:32:00.210Z,29.40
2023-01-25T23:34:27.949Z,24.83
2023-01-25T23:36:55.249Z,28.40
2023-01-25T23:39:23.697Z,29.37
2023-01-25T23:41:52.480Z,23.73
2023-01-25T23:44:20.026Z,24.75
2023-01-25T23:46:48.391Z,26.03
2023-01-25T23:49:16.099Z,22.10
2023-01-25T23:51:43.340Z,21.90
2023-01-25T23:54:10.948Z,23.73
2023-01-25T23:56:38.219Z,22.73
2023-01-25T23:59:05.790Z,22.13
